sensor_id;sensor_type;location;lat;lon;timestamp;pressure;altitude;pressure_sealevel;temperature
69007;BMP180;56061;51.748;19.620;2022-10-28T00:01:17;99949.00;;;8.00
69007;BMP180;56061;51.748;19.620;2022-10-28T00:03:51;99950.40;;;8.00
69007;BMP180;56061;51.748;19.620;2022-10-28T00:06:29;99949.40;;;7.90
69007;BMP180;56061;51.748;19.620;2022-10-28T00:08:56;99951.00;;;7.90
69007;BMP180;56061;51.748;19.620;2022-10-28T00:11:29;99952.20;;;7.72
69007;BMP180;56061;51.748;19.620;2022-10-28T00:13:59;99950.20;;;7.70
69007;BMP180;56061;51.748;19.620;2022-10-28T00:16:30;99952.40;;;7.62
69007;BMP180;56061;51.748;19.620;2022-10-28T00:18:58;99953.20;;;7.56
69007;BMP180;56061;51.748;19.620;2022-10-28T00:21:28;99949.40;;;7.48
69007;BMP180;56061;51.748;19.620;2022-10-28T00:23:56;99938.00;;;7.50
69007;BMP180;56061;51.748;19.620;2022-10-28T00:26:26;99936.60;;;7.50
69007;BMP180;56061;51.748;19.620;2022-10-28T00:29:12;99932.40;;;7.50
69007;BMP180;56061;51.748;19.620;2022-10-28T00:31:40;99930.20;;;7.36
69007;BMP180;56061;51.748;19.620;2022-10-28T00:34:14;99929.80;;;7.30
69007;BMP180;56061;51.748;19.620;2022-10-28T00:36:43;99930.00;;;7.40
69007;BMP180;56061;51.748;19.620;2022-10-28T00:39:17;99926.40;;;7.40
69007;BMP180;56061;51.748;19.620;2022-10-28T00:41:57;99919.40;;;7.50
69007;BMP180;56061;51.748;19.620;2022-10-28T00:47:26;99914.40;;;7.40
69007;BMP180;56061;51.748;19.620;2022-10-28T00:50:00;99916.00;;;7.40
69007;BMP180;56061;51.748;19.620;2022-10-28T00:52:30;99919.00;;;7.40
69007;BMP180;56061;51.748;19.620;2022-10-28T00:55:00;99916.60;;;7.40
69007;BMP180;56061;51.748;19.620;2022-10-28T00:57:35;99913.60;;;7.22
69007;BMP180;56061;51.748;19.620;2022-10-28T01:00:06;99906.80;;;7.20
69007;BMP180;56061;51.748;19.620;2022-10-28T01:02:43;99906.00;;;7.10
69007;BMP180;56061;51.748;19.620;2022-10-28T01:05:15;99909.60;;;7.10
69007;BMP180;56061;51.748;19.620;2022-10-28T01:07:43;99914.60;;;7.20
69007;BMP180;56061;51.748;19.620;2022-10-28T01:10:11;99912.40;;;7.22
69007;BMP180;56061;51.748;19.620;2022-10-28T01:13:19;99921.60;;;7.30
69007;BMP180;56061;51.748;19.620;2022-10-28T01:16:28;99920.40;;;7.30
69007;BMP180;56061;51.748;19.620;2022-10-28T01:31:00;99894.60;;;7.40
69007;BMP180;56061;51.748;19.620;2022-10-28T01:36:31;99881.40;;;7.30
69007;BMP180;56061;51.748;19.620;2022-10-28T01:39:16;99882.40;;;7.20
69007;BMP180;56061;51.748;19.620;2022-10-28T01:42:38;99880.40;;;7.20
69007;BMP180;56061;51.748;19.620;2022-10-28T01:47:35;99876.40;;;7.20
69007;BMP180;56061;51.748;19.620;2022-10-28T01:50:20;99876.60;;;7.20
69007;BMP180;56061;51.748;19.620;2022-10-28T01:52:52;99881.80;;;7.20
69007;BMP180;56061;51.748;19.620;2022-10-28T01:55:27;99881.60;;;7.20
69007;BMP180;56061;51.748;19.620;2022-10-28T01:57:57;99884.60;;;7.30
69007;BMP180;56061;51.748;19.620;2022-10-28T02:00:25;99882.80;;;7.30
69007;BMP180;56061;51.748;19.620;2022-10-28T02:02:54;99877.20;;;7.30
69007;BMP180;56061;51.748;19.620;2022-10-28T02:05:45;99871.20;;;7.30
69007;BMP180;56061;51.748;19.620;2022-10-28T02:16:38;99868.80;;;7.10
69007;BMP180;56061;51.748;19.620;2022-10-28T02:19:17;99869.40;;;7.10
69007;BMP180;56061;51.748;19.620;2022-10-28T02:22:23;99867.60;;;7.00
69007;BMP180;56061;51.748;19.620;2022-10-28T02:25:32;99865.40;;;7.00
69007;BMP180;56061;51.748;19.620;2022-10-28T02:28:06;99861.00;;;6.90
69007;BMP180;56061;51.748;19.620;2022-10-28T02:30:46;99858.60;;;6.90
69007;BMP180;56061;51.748;19.620;2022-10-28T02:33:24;99863.20;;;6.90
69007;BMP180;56061;51.748;19.620;2022-10-28T02:36:05;99865.80;;;6.90
69007;BMP180;56061;51.748;19.620;2022-10-28T02:38:39;99865.60;;;6.80
69007;BMP180;56061;51.748;19.620;2022-10-28T02:41:55;99863.80;;;6.80
69007;BMP180;56061;51.748;19.620;2022-10-28T02:44:33;99866.40;;;6.90
69007;BMP180;56061;51.748;19.620;2022-10-28T02:47:07;99862.00;;;6.94
69007;BMP180;56061;51.748;19.620;2022-10-28T02:49:38;99856.40;;;7.00
69007;BMP180;56061;51.748;19.620;2022-10-28T02:52:07;99853.40;;;7.00
69007;BMP180;56061;51.748;19.620;2022-10-28T02:54:54;99849.20;;;7.00
69007;BMP180;56061;51.748;19.620;2022-10-28T02:57:26;99839.20;;;6.90
69007;BMP180;56061;51.748;19.620;2022-10-28T02:59:57;99835.80;;;6.90
69007;BMP180;56061;51.748;19.620;2022-10-28T03:02:24;99837.80;;;6.90
69007;BMP180;56061;51.748;19.620;2022-10-28T03:04:51;99834.60;;;6.90
69007;BMP180;56061;51.748;19.620;2022-10-28T03:07:18;99835.40;;;6.90
69007;BMP180;56061;51.748;19.620;2022-10-28T03:09:45;99833.60;;;6.90
69007;BMP180;56061;51.748;19.620;2022-10-28T03:12:11;99832.00;;;6.96
69007;BMP180;56061;51.748;19.620;2022-10-28T03:14:38;99826.00;;;6.98
69007;BMP180;56061;51.748;19.620;2022-10-28T03:17:05;99829.40;;;6.96
69007;BMP180;56061;51.748;19.620;2022-10-28T03:19:33;99828.20;;;6.90
69007;BMP180;56061;51.748;19.620;2022-10-28T03:21:59;99825.40;;;6.90
69007;BMP180;56061;51.748;19.620;2022-10-28T03:24:26;99827.80;;;6.90
69007;BMP180;56061;51.748;19.620;2022-10-28T03:26:52;99825.60;;;6.90
69007;BMP180;56061;51.748;19.620;2022-10-28T03:29:19;99826.60;;;6.90
69007;BMP180;56061;51.748;19.620;2022-10-28T03:31:46;99831.60;;;6.92
69007;BMP180;56061;51.748;19.620;2022-10-28T03:34:12;99833.00;;;6.92
69007;BMP180;56061;51.748;19.620;2022-10-28T03:36:39;99831.40;;;6.90
69007;BMP180;56061;51.748;19.620;2022-10-28T03:39:05;99828.80;;;6.90
69007;BMP180;56061;51.748;19.620;2022-10-28T03:41:32;99827.20;;;6.90
69007;BMP180;56061;51.748;19.620;2022-10-28T03:43:58;99823.60;;;6.90
69007;BMP180;56061;51.748;19.620;2022-10-28T03:46:25;99830.40;;;6.90
69007;BMP180;56061;51.748;19.620;2022-10-28T03:48:51;99830.40;;;6.90
69007;BMP180;56061;51.748;19.620;2022-10-28T03:51:18;99831.60;;;6.90
69007;BMP180;56061;51.748;19.620;2022-10-28T03:53:44;99832.60;;;6.92
69007;BMP180;56061;51.748;19.620;2022-10-28T03:56:11;99826.80;;;7.00
69007;BMP180;56061;51.748;19.620;2022-10-28T03:58:38;99824.20;;;6.94
69007;BMP180;56061;51.748;19.620;2022-10-28T04:01:06;99817.20;;;6.90
69007;BMP180;56061;51.748;19.620;2022-10-28T04:03:33;99823.00;;;6.90
69007;BMP180;56061;51.748;19.620;2022-10-28T04:06:00;99825.60;;;6.84
69007;BMP180;56061;51.748;19.620;2022-10-28T04:08:26;99823.40;;;6.80
69007;BMP180;56061;51.748;19.620;2022-10-28T04:10:52;99818.00;;;6.80
69007;BMP180;56061;51.748;19.620;2022-10-28T04:13:19;99818.60;;;6.80
69007;BMP180;56061;51.748;19.620;2022-10-28T04:15:45;99810.40;;;6.80
69007;BMP180;56061;51.748;19.620;2022-10-28T04:18:12;99807.80;;;6.80
69007;BMP180;56061;51.748;19.620;2022-10-28T04:20:39;99801.80;;;6.80
69007;BMP180;56061;51.748;19.620;2022-10-28T04:23:05;99796.40;;;6.80
69007;BMP180;56061;51.748;19.620;2022-10-28T04:25:32;99794.20;;;6.70
69007;BMP180;56061;51.748;19.620;2022-10-28T04:27:58;99792.20;;;6.70
69007;BMP180;56061;51.748;19.620;2022-10-28T04:30:25;99788.80;;;6.70
69007;BMP180;56061;51.748;19.620;2022-10-28T04:32:51;99789.00;;;6.70
69007;BMP180;56061;51.748;19.620;2022-10-28T04:35:18;99790.00;;;6.60
69007;BMP180;56061;51.748;19.620;2022-10-28T04:37:44;99784.20;;;6.54
69007;BMP180;56061;51.748;19.620;2022-10-28T04:40:11;99785.20;;;6.56
69007;BMP180;56061;51.748;19.620;2022-10-28T04:42:37;99783.60;;;6.60
69007;BMP180;56061;51.748;19.620;2022-10-28T04:45:05;99781.80;;;6.60
69007;BMP180;56061;51.748;19.620;2022-10-28T04:47:31;99781.80;;;6.64
69007;BMP180;56061;51.748;19.620;2022-10-28T04:49:58;99780.40;;;6.70
69007;BMP180;56061;51.748;19.620;2022-10-28T04:52:24;99782.80;;;6.70
69007;BMP180;56061;51.748;19.620;2022-10-28T04:54:51;99776.40;;;6.70
69007;BMP180;56061;51.748;19.620;2022-10-28T04:57:17;99781.80;;;6.70
69007;BMP180;56061;51.748;19.620;2022-10-28T04:59:44;99780.20;;;6.66
69007;BMP180;56061;51.748;19.620;2022-10-28T05:02:11;99781.00;;;6.70
69007;BMP180;56061;51.748;19.620;2022-10-28T05:04:38;99778.60;;;6.70
69007;BMP180;56061;51.748;19.620;2022-10-28T05:07:05;99775.80;;;6.70
69007;BMP180;56061;51.748;19.620;2022-10-28T05:09:32;99773.00;;;6.70
69007;BMP180;56061;51.748;19.620;2022-10-28T05:11:58;99771.20;;;6.74
69007;BMP180;56061;51.748;19.620;2022-10-28T05:14:25;99763.20;;;6.80
69007;BMP180;56061;51.748;19.620;2022-10-28T05:16:51;99764.00;;;6.70
69007;BMP180;56061;51.748;19.620;2022-10-28T05:19:17;99761.80;;;6.80
69007;BMP180;56061;51.748;19.620;2022-10-28T05:21:44;99759.80;;;6.80
69007;BMP180;56061;51.748;19.620;2022-10-28T05:24:11;99761.80;;;6.80
69007;BMP180;56061;51.748;19.620;2022-10-28T05:26:37;99759.40;;;6.80
69007;BMP180;56061;51.748;19.620;2022-10-28T05:29:04;99762.60;;;6.70
69007;BMP180;56061;51.748;19.620;2022-10-28T05:31:30;99765.40;;;6.70
69007;BMP180;56061;51.748;19.620;2022-10-28T05:33:56;99764.80;;;6.76
69007;BMP180;56061;51.748;19.620;2022-10-28T05:36:23;99762.20;;;6.80
69007;BMP180;56061;51.748;19.620;2022-10-28T05:38:49;99766.80;;;6.90
69007;BMP180;56061;51.748;19.620;2022-10-28T05:41:16;99774.40;;;7.00
69007;BMP180;56061;51.748;19.620;2022-10-28T05:43:42;99771.60;;;7.00
69007;BMP180;56061;51.748;19.620;2022-10-28T05:46:09;99772.40;;;7.04
69007;BMP180;56061;51.748;19.620;2022-10-28T05:48:36;99773.20;;;7.20
69007;BMP180;56061;51.748;19.620;2022-10-28T05:51:02;99772.00;;;7.30
69007;BMP180;56061;51.748;19.620;2022-10-28T05:53:29;99773.20;;;7.40
69007;BMP180;56061;51.748;19.620;2022-10-28T05:55:55;99761.60;;;7.52
69007;BMP180;56061;51.748;19.620;2022-10-28T05:58:21;99760.40;;;7.70
69007;BMP180;56061;51.748;19.620;2022-10-28T06:00:48;99763.60;;;7.80
69007;BMP180;56061;51.748;19.620;2022-10-28T06:03:14;99762.40;;;7.98
69007;BMP180;56061;51.748;19.620;2022-10-28T06:05:43;99761.20;;;8.10
69007;BMP180;56061;51.748;19.620;2022-10-28T06:08:12;99759.20;;;8.20
69007;BMP180;56061;51.748;19.620;2022-10-28T06:10:39;99759.60;;;8.40
69007;BMP180;56061;51.748;19.620;2022-10-28T06:13:07;99765.80;;;8.50
69007;BMP180;56061;51.748;19.620;2022-10-28T06:15:34;99760.60;;;8.60
69007;BMP180;56061;51.748;19.620;2022-10-28T06:18:00;99761.00;;;8.70
69007;BMP180;56061;51.748;19.620;2022-10-28T06:20:27;99757.80;;;8.80
69007;BMP180;56061;51.748;19.620;2022-10-28T06:22:54;99752.00;;;8.90
69007;BMP180;56061;51.748;19.620;2022-10-28T06:25:25;99754.60;;;8.90
69007;BMP180;56061;51.748;19.620;2022-10-28T06:27:57;99759.20;;;9.00
69007;BMP180;56061;51.748;19.620;2022-10-28T06:30:26;99759.40;;;9.10
69007;BMP180;56061;51.748;19.620;2022-10-28T06:32:56;99758.00;;;9.10
69007;BMP180;56061;51.748;19.620;2022-10-28T06:35:23;99761.60;;;9.20
69007;BMP180;56061;51.748;19.620;2022-10-28T06:37:56;99766.00;;;9.30
69007;BMP180;56061;51.748;19.620;2022-10-28T06:40:24;99761.80;;;9.40
69007;BMP180;56061;51.748;19.620;2022-10-28T06:42:59;99758.80;;;9.42
69007;BMP180;56061;51.748;19.620;2022-10-28T06:45:31;99758.80;;;9.50
69007;BMP180;56061;51.748;19.620;2022-10-28T06:48:01;99758.40;;;9.50
69007;BMP180;56061;51.748;19.620;2022-10-28T06:50:29;99761.40;;;9.60
69007;BMP180;56061;51.748;19.620;2022-10-28T06:52:56;99764.60;;;9.70
69007;BMP180;56061;51.748;19.620;2022-10-28T06:55:25;99769.40;;;9.80
69007;BMP180;56061;51.748;19.620;2022-10-28T06:57:52;99768.80;;;9.90
69007;BMP180;56061;51.748;19.620;2022-10-28T07:00:19;99764.60;;;9.90
69007;BMP180;56061;51.748;19.620;2022-10-28T07:02:51;99766.80;;;10.00
69007;BMP180;56061;51.748;19.620;2022-10-28T07:05:19;99762.40;;;10.00
69007;BMP180;56061;51.748;19.620;2022-10-28T07:07:45;99769.20;;;10.00
69007;BMP180;56061;51.748;19.620;2022-10-28T07:10:12;99768.60;;;10.04
69007;BMP180;56061;51.748;19.620;2022-10-28T07:12:38;99761.00;;;10.10
69007;BMP180;56061;51.748;19.620;2022-10-28T07:15:06;99758.00;;;10.14
69007;BMP180;56061;51.748;19.620;2022-10-28T07:17:32;99756.80;;;10.20
69007;BMP180;56061;51.748;19.620;2022-10-28T07:19:59;99761.20;;;10.30
69007;BMP180;56061;51.748;19.620;2022-10-28T07:22:25;99763.20;;;10.36
69007;BMP180;56061;51.748;19.620;2022-10-28T07:24:51;99767.60;;;10.40
69007;BMP180;56061;51.748;19.620;2022-10-28T07:27:18;99766.20;;;10.48
69007;BMP180;56061;51.748;19.620;2022-10-28T07:29:45;99761.20;;;10.50
69007;BMP180;56061;51.748;19.620;2022-10-28T07:32:11;99756.80;;;10.50
69007;BMP180;56061;51.748;19.620;2022-10-28T07:34:38;99751.80;;;10.52
69007;BMP180;56061;51.748;19.620;2022-10-28T07:37:04;99760.20;;;10.60
69007;BMP180;56061;51.748;19.620;2022-10-28T07:39:31;99752.20;;;10.70
69007;BMP180;56061;51.748;19.620;2022-10-28T07:41:57;99752.60;;;10.80
69007;BMP180;56061;51.748;19.620;2022-10-28T07:44:27;99751.00;;;10.90
69007;BMP180;56061;51.748;19.620;2022-10-28T07:46:54;99746.80;;;11.00
69007;BMP180;56061;51.748;19.620;2022-10-28T07:49:24;99748.80;;;11.20
69007;BMP180;56061;51.748;19.620;2022-10-28T07:51:50;99748.40;;;11.40
69007;BMP180;56061;51.748;19.620;2022-10-28T07:54:17;99745.20;;;11.50
69007;BMP180;56061;51.748;19.620;2022-10-28T07:56:43;99744.60;;;11.70
69007;BMP180;56061;51.748;19.620;2022-10-28T07:59:10;99738.60;;;11.80
69007;BMP180;56061;51.748;19.620;2022-10-28T08:01:36;99735.20;;;12.00
69007;BMP180;56061;51.748;19.620;2022-10-28T08:04:03;99738.40;;;12.10
69007;BMP180;56061;51.748;19.620;2022-10-28T08:06:30;99737.80;;;12.20
69007;BMP180;56061;51.748;19.620;2022-10-28T08:08:57;99740.80;;;12.40
69007;BMP180;56061;51.748;19.620;2022-10-28T08:11:23;99731.60;;;12.60
69007;BMP180;56061;51.748;19.620;2022-10-28T08:13:51;99736.40;;;12.70
69007;BMP180;56061;51.748;19.620;2022-10-28T08:16:18;99735.20;;;12.88
69007;BMP180;56061;51.748;19.620;2022-10-28T08:18:45;99740.00;;;12.98
69007;BMP180;56061;51.748;19.620;2022-10-28T08:21:13;99743.00;;;13.00
69007;BMP180;56061;51.748;19.620;2022-10-28T08:23:40;99740.80;;;13.10
69007;BMP180;56061;51.748;19.620;2022-10-28T08:26:13;99749.20;;;13.10
69007;BMP180;56061;51.748;19.620;2022-10-28T08:28:41;99746.80;;;13.16
69007;BMP180;56061;51.748;19.620;2022-10-28T08:31:08;99745.80;;;13.20
69007;BMP180;56061;51.748;19.620;2022-10-28T08:33:37;99751.00;;;13.10
69007;BMP180;56061;51.748;19.620;2022-10-28T08:36:06;99752.80;;;13.10
69007;BMP180;56061;51.748;19.620;2022-10-28T08:38:33;99752.40;;;13.20
69007;BMP180;56061;51.748;19.620;2022-10-28T08:41:26;99748.60;;;13.20
69007;BMP180;56061;51.748;19.620;2022-10-28T08:44:28;99755.80;;;13.24
69007;BMP180;56061;51.748;19.620;2022-10-28T08:47:31;99753.00;;;13.30
69007;BMP180;56061;51.748;19.620;2022-10-28T08:50:11;99746.80;;;13.28
69007;BMP180;56061;51.748;19.620;2022-10-28T08:53:09;99741.60;;;13.30
69007;BMP180;56061;51.748;19.620;2022-10-28T08:55:43;99738.40;;;13.30
69007;BMP180;56061;51.748;19.620;2022-10-28T08:58:25;99733.80;;;13.32
69007;BMP180;56061;51.748;19.620;2022-10-28T09:00:56;99729.80;;;13.40
69007;BMP180;56061;51.748;19.620;2022-10-28T09:03:41;99729.60;;;13.50
69007;BMP180;56061;51.748;19.620;2022-10-28T09:06:09;99729.80;;;13.60
69007;BMP180;56061;51.748;19.620;2022-10-28T09:08:40;99729.20;;;13.70
69007;BMP180;56061;51.748;19.620;2022-10-28T09:11:45;99728.20;;;13.80
69007;BMP180;56061;51.748;19.620;2022-10-28T09:17:43;99725.80;;;13.90
69007;BMP180;56061;51.748;19.620;2022-10-28T09:20:27;99724.40;;;14.10
69007;BMP180;56061;51.748;19.620;2022-10-28T09:22:58;99726.20;;;14.18
69007;BMP180;56061;51.748;19.620;2022-10-28T09:25:44;99729.00;;;14.30
69007;BMP180;56061;51.748;19.620;2022-10-28T09:31:44;99727.80;;;14.50
69007;BMP180;56061;51.748;19.620;2022-10-28T09:34:33;99727.60;;;14.60
69007;BMP180;56061;51.748;19.620;2022-10-28T09:37:18;99725.00;;;14.70
69007;BMP180;56061;51.748;19.620;2022-10-28T09:39:51;99724.20;;;14.70
69007;BMP180;56061;51.748;19.620;2022-10-28T09:42:35;99725.20;;;14.70
69007;BMP180;56061;51.748;19.620;2022-10-28T09:45:18;99726.20;;;14.70
69007;BMP180;56061;51.748;19.620;2022-10-28T09:47:55;99724.20;;;14.80
69007;BMP180;56061;51.748;19.620;2022-10-28T09:50:30;99726.00;;;14.90
69007;BMP180;56061;51.748;19.620;2022-10-28T09:53:52;99717.00;;;15.00
69007;BMP180;56061;51.748;19.620;2022-10-28T09:56:19;99708.80;;;15.10
69007;BMP180;56061;51.748;19.620;2022-10-28T09:58:46;99705.80;;;15.14
69007;BMP180;56061;51.748;19.620;2022-10-28T10:01:16;99702.60;;;15.20
69007;BMP180;56061;51.748;19.620;2022-10-28T10:03:47;99704.60;;;15.30
69007;BMP180;56061;51.748;19.620;2022-10-28T10:06:20;99700.20;;;15.40
69007;BMP180;56061;51.748;19.620;2022-10-28T10:08:48;99702.40;;;15.50
69007;BMP180;56061;51.748;19.620;2022-10-28T10:11:33;99696.00;;;15.60
69007;BMP180;56061;51.748;19.620;2022-10-28T10:14:09;99691.60;;;15.70
69007;BMP180;56061;51.748;19.620;2022-10-28T10:16:48;99690.40;;;15.80
69007;BMP180;56061;51.748;19.620;2022-10-28T10:19:17;99695.80;;;15.88
69007;BMP180;56061;51.748;19.620;2022-10-28T10:21:45;99694.80;;;15.96
69007;BMP180;56061;51.748;19.620;2022-10-28T10:24:33;99695.60;;;16.02
69007;BMP180;56061;51.748;19.620;2022-10-28T10:29:43;99692.40;;;16.26
69007;BMP180;56061;51.748;19.620;2022-10-28T10:32:22;99691.20;;;16.40
69007;BMP180;56061;51.748;19.620;2022-10-28T10:37:35;99685.60;;;16.60
69007;BMP180;56061;51.748;19.620;2022-10-28T10:40:27;99684.80;;;16.64
69007;BMP180;56061;51.748;19.620;2022-10-28T10:46:12;99690.60;;;16.84
69007;BMP180;56061;51.748;19.620;2022-10-28T10:48:39;99691.60;;;16.90
69007;BMP180;56061;51.748;19.620;2022-10-28T10:51:08;99693.00;;;17.00
69007;BMP180;56061;51.748;19.620;2022-10-28T10:53:38;99689.20;;;17.10
69007;BMP180;56061;51.748;19.620;2022-10-28T10:56:10;99684.20;;;17.20
69007;BMP180;56061;51.748;19.620;2022-10-28T10:58:45;99687.20;;;17.30
69007;BMP180;56061;51.748;19.620;2022-10-28T11:01:18;99691.00;;;17.30
69007;BMP180;56061;51.748;19.620;2022-10-28T11:04:00;99685.40;;;17.40
69007;BMP180;56061;51.748;19.620;2022-10-28T11:06:31;99681.00;;;17.50
69007;BMP180;56061;51.748;19.620;2022-10-28T11:09:02;99674.60;;;17.64
69007;BMP180;56061;51.748;19.620;2022-10-28T11:11:39;99671.20;;;17.72
69007;BMP180;56061;51.748;19.620;2022-10-28T11:16:51;99669.80;;;17.90
69007;BMP180;56061;51.748;19.620;2022-10-28T11:19:33;99674.40;;;18.00
69007;BMP180;56061;51.748;19.620;2022-10-28T11:22:31;99678.60;;;18.08
69007;BMP180;56061;51.748;19.620;2022-10-28T11:31:13;99667.40;;;18.20
69007;BMP180;56061;51.748;19.620;2022-10-28T11:36:29;99663.00;;;18.30
69007;BMP180;56061;51.748;19.620;2022-10-28T11:39:18;99665.40;;;18.40
69007;BMP180;56061;51.748;19.620;2022-10-28T11:44:59;99665.80;;;18.50
69007;BMP180;56061;51.748;19.620;2022-10-28T11:50:19;99657.00;;;18.60
69007;BMP180;56061;51.748;19.620;2022-10-28T12:04:31;99642.80;;;18.86
69007;BMP180;56061;51.748;19.620;2022-10-28T12:16:33;99636.60;;;19.06
69007;BMP180;56061;51.748;19.620;2022-10-28T12:19:12;99634.20;;;19.00
69007;BMP180;56061;51.748;19.620;2022-10-28T12:22:03;99633.60;;;19.00
69007;BMP180;56061;51.748;19.620;2022-10-28T12:24:36;99632.40;;;19.10
69007;BMP180;56061;51.748;19.620;2022-10-28T12:27:30;99629.20;;;19.10
69007;BMP180;56061;51.748;19.620;2022-10-28T12:30:07;99626.20;;;19.20
69007;BMP180;56061;51.748;19.620;2022-10-28T12:32:41;99626.00;;;19.20
69007;BMP180;56061;51.748;19.620;2022-10-28T12:35:18;99628.60;;;19.30
69007;BMP180;56061;51.748;19.620;2022-10-28T12:38:14;99617.20;;;19.40
69007;BMP180;56061;51.748;19.620;2022-10-28T12:40:52;99611.00;;;19.44
69007;BMP180;56061;51.748;19.620;2022-10-28T12:43:38;99608.40;;;19.50
69007;BMP180;56061;51.748;19.620;2022-10-28T12:46:29;99610.60;;;19.60
69007;BMP180;56061;51.748;19.620;2022-10-28T12:49:08;99609.20;;;19.60
69007;BMP180;56061;51.748;19.620;2022-10-28T12:51:38;99605.00;;;19.60
69007;BMP180;56061;51.748;19.620;2022-10-28T12:57:21;99607.60;;;19.70
69007;BMP180;56061;51.748;19.620;2022-10-28T13:00:19;99601.80;;;19.70
69007;BMP180;56061;51.748;19.620;2022-10-28T13:02:59;99606.40;;;19.80
69007;BMP180;56061;51.748;19.620;2022-10-28T13:08:43;99603.60;;;19.80
69007;BMP180;56061;51.748;19.620;2022-10-28T13:20:45;99597.80;;;20.02
69007;BMP180;56061;51.748;19.620;2022-10-28T13:23:28;99592.80;;;20.10
69007;BMP180;56061;51.748;19.620;2022-10-28T13:26:21;99596.80;;;20.10
69007;BMP180;56061;51.748;19.620;2022-10-28T13:28:54;99597.60;;;20.10
69007;BMP180;56061;51.748;19.620;2022-10-28T13:31:22;99601.60;;;20.10
69007;BMP180;56061;51.748;19.620;2022-10-28T13:33:57;99602.80;;;20.12
69007;BMP180;56061;51.748;19.620;2022-10-28T13:36:28;99606.00;;;20.20
69007;BMP180;56061;51.748;19.620;2022-10-28T13:39:04;99599.40;;;20.20
69007;BMP180;56061;51.748;19.620;2022-10-28T13:41:37;99604.80;;;20.20
69007;BMP180;56061;51.748;19.620;2022-10-28T13:55:56;99604.60;;;20.20
69007;BMP180;56061;51.748;19.620;2022-10-28T13:58:25;99605.20;;;20.20
69007;BMP180;56061;51.748;19.620;2022-10-28T14:00:52;99606.60;;;20.16
69007;BMP180;56061;51.748;19.620;2022-10-28T14:03:26;99609.80;;;20.10
69007;BMP180;56061;51.748;19.620;2022-10-28T14:05:57;99607.80;;;20.12
69007;BMP180;56061;51.748;19.620;2022-10-28T14:08:39;99608.40;;;20.12
69007;BMP180;56061;51.748;19.620;2022-10-28T14:11:10;99612.00;;;20.20
69007;BMP180;56061;51.748;19.620;2022-10-28T14:13:48;99606.80;;;20.20
69007;BMP180;56061;51.748;19.620;2022-10-28T14:19:15;99611.40;;;20.30
69007;BMP180;56061;51.748;19.620;2022-10-28T14:21:51;99605.40;;;20.20
69007;BMP180;56061;51.748;19.620;2022-10-28T14:24:40;99607.40;;;20.20
69007;BMP180;56061;51.748;19.620;2022-10-28T14:35:04;99605.40;;;20.00
69007;BMP180;56061;51.748;19.620;2022-10-28T14:38:17;99607.20;;;19.92
69007;BMP180;56061;51.748;19.620;2022-10-28T14:41:18;99604.60;;;19.80
69007;BMP180;56061;51.748;19.620;2022-10-28T14:52:44;99586.40;;;19.30
69007;BMP180;56061;51.748;19.620;2022-10-28T14:55:38;99591.00;;;19.14
69007;BMP180;56061;51.748;19.620;2022-10-28T15:03:31;99589.80;;;18.70
69007;BMP180;56061;51.748;19.620;2022-10-28T15:06:21;99590.60;;;18.60
69007;BMP180;56061;51.748;19.620;2022-10-28T15:08:49;99589.80;;;18.50
69007;BMP180;56061;51.748;19.620;2022-10-28T15:11:16;99596.00;;;18.40
69007;BMP180;56061;51.748;19.620;2022-10-28T15:13:43;99592.20;;;18.30
69007;BMP180;56061;51.748;19.620;2022-10-28T15:16:22;99589.60;;;18.20
69007;BMP180;56061;51.748;19.620;2022-10-28T15:18:52;99584.80;;;18.16
69007;BMP180;56061;51.748;19.620;2022-10-28T15:21:21;99581.00;;;18.10
69007;BMP180;56061;51.748;19.620;2022-10-28T15:23:59;99578.00;;;18.00
69007;BMP180;56061;51.748;19.620;2022-10-28T15:26:26;99574.00;;;17.90
69007;BMP180;56061;51.748;19.620;2022-10-28T15:28:54;99567.40;;;17.80
69007;BMP180;56061;51.748;19.620;2022-10-28T15:31:21;99564.40;;;17.70
69007;BMP180;56061;51.748;19.620;2022-10-28T15:33:47;99559.80;;;17.66
69007;BMP180;56061;51.748;19.620;2022-10-28T15:36:23;99563.80;;;17.52
69007;BMP180;56061;51.748;19.620;2022-10-28T15:39:04;99565.00;;;17.40
69007;BMP180;56061;51.748;19.620;2022-10-28T15:41:48;99567.80;;;17.40
69007;BMP180;56061;51.748;19.620;2022-10-28T15:44:36;99566.20;;;17.30
69007;BMP180;56061;51.748;19.620;2022-10-28T15:47:26;99556.20;;;17.30
69007;BMP180;56061;51.748;19.620;2022-10-28T15:52:46;99571.60;;;17.20
69007;BMP180;56061;51.748;19.620;2022-10-28T15:57:51;99568.40;;;17.10
69007;BMP180;56061;51.748;19.620;2022-10-28T16:00:20;99559.80;;;17.08
69007;BMP180;56061;51.748;19.620;2022-10-28T16:02:59;99563.60;;;17.00
69007;BMP180;56061;51.748;19.620;2022-10-28T16:05:41;99576.40;;;17.00
69007;BMP180;56061;51.748;19.620;2022-10-28T16:08:33;99570.00;;;17.00
69007;BMP180;56061;51.748;19.620;2022-10-28T16:11:05;99571.20;;;17.00
69007;BMP180;56061;51.748;19.620;2022-10-28T16:13:47;99560.60;;;16.92
69007;BMP180;56061;51.748;19.620;2022-10-28T16:16:26;99568.40;;;16.80
69007;BMP180;56061;51.748;19.620;2022-10-28T16:19:06;99565.40;;;16.80
69007;BMP180;56061;51.748;19.620;2022-10-28T16:21:35;99558.80;;;16.70
69007;BMP180;56061;51.748;19.620;2022-10-28T16:24:03;99557.40;;;16.70
69007;BMP180;56061;51.748;19.620;2022-10-28T16:26:30;99551.20;;;16.70
69007;BMP180;56061;51.748;19.620;2022-10-28T16:28:58;99552.20;;;16.60
69007;BMP180;56061;51.748;19.620;2022-10-28T16:31:28;99544.40;;;16.60
69007;BMP180;56061;51.748;19.620;2022-10-28T16:33:57;99544.20;;;16.50
69007;BMP180;56061;51.748;19.620;2022-10-28T16:36:25;99542.00;;;16.42
69007;BMP180;56061;51.748;19.620;2022-10-28T16:38:53;99544.20;;;16.40
69007;BMP180;56061;51.748;19.620;2022-10-28T16:41:20;99549.00;;;16.50
69007;BMP180;56061;51.748;19.620;2022-10-28T16:43:46;99548.60;;;16.50
69007;BMP180;56061;51.748;19.620;2022-10-28T16:46:13;99550.00;;;16.50
69007;BMP180;56061;51.748;19.620;2022-10-28T16:48:40;99549.80;;;16.50
69007;BMP180;56061;51.748;19.620;2022-10-28T16:51:14;99543.60;;;16.50
69007;BMP180;56061;51.748;19.620;2022-10-28T16:53:42;99540.80;;;16.50
69007;BMP180;56061;51.748;19.620;2022-10-28T16:56:13;99538.00;;;16.50